Time;durP1;ratioP1;P1;durP2;ratioP2;P2;SDS_P1;SDS_P2;PMS_P1;PMS_P2;Temp;Humidity;BMP_temperature;BMP_pressure;BME280_temperature;BME280_humidity;BME280_pressure;Samples;Min_cycle;Max_cycle;Signal;HPM_P1;HPM_P2
2021/04/14 00:02:12;;;;;;;1.63;0.30;;;2.00;99.90;;;;;;5055439;28;20025;-74
2021/04/14 00:04:38;;;;;;;2.95;0.45;;;2.00;99.90;;;;;;5056052;28;20025;-74
2021/04/14 00:07:05;;;;;;;0.88;0.13;;;1.90;99.90;;;;;;5055651;28;20484;-74
2021/04/14 00:09:31;;;;;;;1.15;0.28;;;1.90;99.90;;;;;;5037761;28;20493;-74
2021/04/14 00:11:57;;;;;;;0.40;0.10;;;1.90;99.90;;;;;;5055520;28;20071;-74
2021/04/14 00:14:23;;;;;;;1.27;0.32;;;1.80;99.90;;;;;;5055781;28;20106;-76
2021/04/14 00:16:49;;;;;;;2.83;0.20;;;2.10;99.90;;;;;;5037433;28;20025;-73
2021/04/14 00:19:15;;;;;;;2.45;0.65;;;1.80;99.90;;;;;;5055534;28;20147;-73
2021/04/14 00:21:40;;;;;;;1.05;0.25;;;1.90;99.90;;;;;;5037489;28;20024;-74
2021/04/14 00:24:09;;;;;;;1.30;0.22;;;1.90;99.90;;;;;;5055548;28;20526;-75
2021/04/14 00:26:38;;;;;;;1.15;0.40;;;1.90;99.90;;;;;;5055574;28;20070;-74
2021/04/14 00:29:05;;;;;;;3.92;0.50;;;1.90;99.90;;;;;;5065849;23;20492;31
2021/04/14 00:31:35;;;;;;;1.67;0.40;;;1.80;99.90;;;;;;4994211;28;20113;-74
2021/04/14 00:34:21;;;;;;;1.15;0.30;;;1.90;99.90;;;;;;4978447;28;20018;-74
2021/04/14 00:36:48;;;;;;;6.45;0.60;;;1.90;99.90;;;;;;5033493;23;20075;-75
2021/04/14 00:39:21;;;;;;;3.67;0.40;;;1.90;99.90;;;;;;5074750;28;20115;-75
2021/04/14 00:41:49;;;;;;;4.03;0.75;;;1.80;99.90;;;;;;5074655;28;20056;-74
2021/04/14 00:44:16;;;;;;;2.05;0.43;;;1.80;99.90;;;;;;5074729;28;20017;-75
2021/04/14 00:46:42;;;;;;;2.13;0.50;;;1.70;99.90;;;;;;5074660;28;20509;-75
2021/04/14 00:49:07;;;;;;;2.67;0.73;;;1.80;99.90;;;;;;5057028;28;20013;-75
2021/04/14 00:51:34;;;;;;;3.30;0.73;;;1.70;99.90;;;;;;5074458;28;20025;-75
2021/04/14 00:54:00;;;;;;;1.17;0.40;;;1.70;99.90;;;;;;5074722;28;20481;-75
2021/04/14 00:56:26;;;;;;;3.75;1.20;;;1.60;99.90;;;;;;5056978;28;20013;-74
2021/04/14 00:58:51;;;;;;;3.17;1.33;;;1.60;99.90;;;;;;5074470;28;20028;-75
2021/04/14 01:01:17;;;;;;;3.45;0.90;;;1.60;99.90;;;;;;5076118;28;20371;-74
2021/04/14 01:03:45;;;;;;;3.78;0.85;;;1.60;99.90;;;;;;5074257;28;20021;-73
2021/04/14 01:06:18;;;;;;;4.13;0.90;;;1.70;99.90;;;;;;5074235;28;20442;-74
2021/04/14 01:08:44;;;;;;;2.22;1.15;;;1.70;99.90;;;;;;5056381;28;20059;-74
2021/04/14 01:11:11;;;;;;;3.53;0.93;;;1.80;99.90;;;;;;5074438;28;20426;-74
2021/04/14 01:13:37;;;;;;;3.30;0.93;;;1.80;99.90;;;;;;5074659;28;20017;-74
2021/04/14 01:16:03;;;;;;;2.35;0.77;;;1.90;99.90;;;;;;5074733;28;20021;-74
2021/04/14 01:18:36;;;;;;;3.83;1.10;;;1.90;99.90;;;;;;5074092;28;20127;-74
2021/04/14 01:21:02;;;;;;;6.88;1.20;;;2.00;99.90;;;;;;5074497;28;20035;-74
2021/04/14 01:23:30;;;;;;;3.33;0.70;;;2.00;99.90;;;;;;5074271;28;20051;-75
2021/04/14 01:25:56;;;;;;;2.67;0.75;;;2.10;99.90;;;;;;5074458;28;20052;-75
2021/04/14 01:28:28;;;;;;;5.88;0.90;;;2.10;99.90;;;;;;5074357;28;20478;-75
2021/04/14 01:30:54;;;;;;;5.03;1.00;;;2.10;99.90;;;;;;5075001;28;20025;-75
2021/04/14 01:33:21;;;;;;;2.53;0.95;;;2.10;99.90;;;;;;5056247;28;20027;-75
2021/04/14 01:35:46;;;;;;;3.92;1.67;;;2.10;99.90;;;;;;5056197;28;20023;-75
2021/04/14 01:38:13;;;;;;;5.13;1.13;;;2.20;99.90;;;;;;5074518;28;20462;-74
2021/04/14 01:40:39;;;;;;;3.05;0.98;;;2.20;99.90;;;;;;5073547;28;20551;-74
2021/04/14 01:43:05;;;;;;;3.30;1.10;;;2.20;99.90;;;;;;5074141;28;20531;-75
2021/04/14 01:45:40;;;;;;;2.75;1.00;;;2.20;99.90;;;;;;5073712;28;20021;-76
2021/04/14 01:48:07;;;;;;;4.80;1.20;;;2.30;99.90;;;;;;5074029;28;20435;-77
2021/04/14 01:50:33;;;;;;;3.47;0.77;;;2.30;99.90;;;;;;5055959;28;20070;-77
2021/04/14 01:52:58;;;;;;;3.95;1.15;;;2.30;99.90;;;;;;5056104;28;20033;-76
2021/04/14 01:55:25;;;;;;;4.30;1.05;;;2.30;99.90;;;;;;5073734;28;20031;-74
2021/04/14 01:57:50;;;;;;;2.30;0.80;;;2.30;99.90;;;;;;5055489;28;20028;-75
2021/04/14 02:00:25;;;;;;;5.45;1.45;;;2.30;99.90;;;;;;5073644;28;20021;-76
2021/04/14 02:02:51;;;;;;;3.15;1.20;;;2.30;99.90;;;;;;5073431;28;20385;-76
2021/04/14 02:05:22;;;;;;;3.13;1.13;;;2.30;99.90;;;;;;5055595;28;20408;-76
2021/04/14 02:07:47;;;;;;;4.95;1.38;;;2.30;99.90;;;;;;5055394;28;20028;-74
2021/04/14 02:10:14;;;;;;;4.13;0.98;;;2.30;99.90;;;;;;5055613;28;20502;-74
2021/04/14 02:12:40;;;;;;;3.70;1.23;;;2.30;99.90;;;;;;5073629;28;20025;-77
2021/04/14 02:15:13;;;;;;;3.63;1.35;;;2.30;99.90;;;;;;5055509;28;20502;-77
2021/04/14 02:17:39;;;;;;;5.00;1.80;;;2.30;99.90;;;;;;5073307;28;20028;-76
2021/04/14 02:20:07;;;;;;;3.95;1.23;;;2.30;99.90;;;;;;5073438;28;20031;-76
2021/04/14 02:22:33;;;;;;;7.95;1.50;;;2.30;99.90;;;;;;5055064;28;20111;-74
2021/04/14 02:24:58;;;;;;;4.03;1.00;;;2.30;99.90;;;;;;5073765;28;20110;-75
2021/04/14 02:27:24;;;;;;;2.53;1.10;;;2.30;99.90;;;;;;5073310;28;20023;-75
2021/04/14 02:29:49;;;;;;;5.78;1.63;;;2.30;99.90;;;;;;5073718;28;20052;-75
2021/04/14 02:32:15;;;;;;;5.05;1.58;;;2.20;99.90;;;;;;5055410;28;20110;-75
2021/04/14 02:34:41;;;;;;;3.97;1.40;;;2.20;99.90;;;;;;5055371;28;20020;-76
2021/04/14 02:37:06;;;;;;;5.45;1.95;;;2.20;99.90;;;;;;5054889;28;20043;-74
2021/04/14 02:39:32;;;;;;;3.15;1.58;;;2.20;99.90;;;;;;5073404;28;20013;-75
2021/04/14 02:41:58;;;;;;;5.57;1.98;;;2.10;99.90;;;;;;5086477;22;20044;-76
2021/04/14 02:44:23;;;;;;;3.28;1.35;;;2.20;99.90;;;;;;5073054;28;20031;-76
2021/04/14 02:46:49;;;;;;;5.15;1.70;;;2.10;99.90;;;;;;5050051;28;20074;-76
2021/04/14 02:49:14;;;;;;;3.10;1.52;;;2.10;99.90;;;;;;5053319;28;20024;-76
2021/04/14 02:51:40;;;;;;;6.07;2.15;;;2.10;99.90;;;;;;5037092;28;20025;-76
2021/04/14 02:54:06;;;;;;;4.93;1.63;;;2.10;99.90;;;;;;5057659;28;20021;-76
2021/04/14 02:56:31;;;;;;;5.22;1.67;;;2.20;99.90;;;;;;5057071;28;20051;-74
2021/04/14 02:58:57;;;;;;;4.40;1.58;;;2.10;99.90;;;;;;5056529;28;20036;-76
2021/04/14 03:01:26;;;;;;;8.52;1.77;;;2.10;99.90;;;;;;5056969;28;20056;-76
2021/04/14 03:03:51;;;;;;;3.28;1.63;;;2.10;99.90;;;;;;5056698;28;20017;-75
2021/04/14 03:06:17;;;;;;;5.45;2.08;;;2.10;99.90;;;;;;5056263;28;20044;-75
2021/04/14 03:08:42;;;;;;;4.35;1.48;;;2.10;99.90;;;;;;5038562;28;20066;-75
2021/04/14 03:11:08;;;;;;;5.70;1.98;;;2.20;99.90;;;;;;5056441;28;20029;-77
2021/04/14 03:13:33;;;;;;;6.57;2.10;;;2.20;99.90;;;;;;5056250;28;20024;-75
2021/04/14 03:15:59;;;;;;;3.83;1.42;;;2.10;99.90;;;;;;5056449;28;20021;-75
2021/04/14 03:18:25;;;;;;;4.82;2.00;;;2.10;99.90;;;;;;5056470;28;20139;-75
2021/04/14 03:20:50;;;;;;;5.15;1.75;;;2.10;99.90;;;;;;5038150;28;20067;-77
2021/04/14 03:23:17;;;;;;;5.60;1.92;;;2.00;99.90;;;;;;5056081;28;20382;-76
2021/04/14 03:28:12;;;;;;;4.82;1.73;;;2.00;99.90;;;;;;5074625;28;20052;-75
2021/04/14 03:30:38;;;;;;;5.07;1.70;;;2.00;99.90;;;;;;5058269;28;20016;-75
2021/04/14 03:33:04;;;;;;;4.38;1.95;;;2.00;99.90;;;;;;5057917;28;20496;-75
2021/04/14 03:35:30;;;;;;;4.28;2.03;;;1.90;99.90;;;;;;5057947;28;20036;-74
2021/04/14 03:37:56;;;;;;;4.72;1.90;;;1.90;99.90;;;;;;5057661;28;20035;-75
2021/04/14 03:40:21;;;;;;;6.47;2.60;;;1.90;99.90;;;;;;5057941;28;20470;-76
2021/04/14 03:42:47;;;;;;;3.85;1.60;;;1.90;99.90;;;;;;5075748;28;20032;-75
2021/04/14 03:45:18;;;;;;;4.95;1.80;;;1.90;99.90;;;;;;5057783;28;20013;-75
2021/04/14 03:47:45;;;;;;;4.30;1.95;;;1.90;99.90;;;;;;5075970;28;20032;-76
2021/04/14 03:50:15;;;;;;;6.45;2.13;;;1.90;99.90;;;;;;5075829;28;20021;-76
2021/04/14 03:52:40;;;;;;;4.70;1.75;;;1.90;99.90;;;;;;5075889;28;20024;-76
2021/04/14 03:55:08;;;;;;;5.43;1.90;;;1.90;99.90;;;;;;5075821;28;20496;-76
2021/04/14 03:57:34;;;;;;;6.15;1.83;;;1.90;99.90;;;;;;5075550;28;20067;-76
2021/04/14 03:59:59;;;;;;;5.15;2.08;;;1.90;99.90;;;;;;5057918;28;20028;-74
2021/04/14 04:02:25;;;;;;;5.75;2.17;;;1.90;99.90;;;;;;5057648;28;20032;-76
2021/04/14 04:04:51;;;;;;;3.50;2.08;;;1.90;99.90;;;;;;5057770;28;20386;-75
2021/04/14 04:07:16;;;;;;;6.60;1.88;;;1.90;99.90;;;;;;5075807;28;20103;-76
2021/04/14 04:09:42;;;;;;;2.88;1.33;;;2.00;99.90;;;;;;5075379;28;20066;-76
2021/04/14 04:12:09;;;;;;;6.07;2.13;;;2.00;99.90;;;;;;5076105;28;20020;-76
2021/04/14 04:14:45;;;;;;;3.03;1.75;;;2.00;99.90;;;;;;5075059;28;20089;-76
2021/04/14 04:17:11;;;;;;;8.23;2.33;;;2.00;99.90;;;;;;5057293;28;20366;-75
2021/04/14 04:19:38;;;;;;;4.85;1.98;;;2.00;99.90;;;;;;5075749;28;20032;-75
2021/04/14 04:22:04;;;;;;;4.70;1.92;;;2.00;99.90;;;;;;5075358;28;20024;-77
2021/04/14 04:24:29;;;;;;;4.32;2.60;;;2.10;99.90;;;;;;5057370;28;20497;-74
2021/04/14 04:26:55;;;;;;;5.65;2.03;;;2.10;99.90;;;;;;5074722;28;20110;-74
2021/04/14 04:29:20;;;;;;;9.27;2.38;;;2.20;99.90;;;;;;5057274;28;20100;-74
2021/04/14 04:31:46;;;;;;;7.65;3.33;;;2.20;99.90;;;;;;5075389;28;20373;-75
2021/04/14 04:34:11;;;;;;;4.88;2.25;;;2.20;99.90;;;;;;5057398;28;20489;-74
2021/04/14 04:36:37;;;;;;;7.65;2.40;;;2.20;99.90;;;;;;5075685;28;20027;-75
2021/04/14 04:39:04;;;;;;;6.25;2.20;;;2.20;99.90;;;;;;5075826;28;20039;-75
2021/04/14 04:41:30;;;;;;;7.65;1.63;;;2.20;99.90;;;;;;5057052;28;20047;-74
2021/04/14 04:43:55;;;;;;;5.72;1.70;;;2.20;99.90;;;;;;5074810;28;20020;-74
2021/04/14 04:46:21;;;;;;;7.15;1.60;;;2.10;99.90;;;;;;5074505;28;20020;-74
2021/04/14 04:48:46;;;;;;;4.43;1.85;;;2.10;99.90;;;;;;5074606;28;20044;-75
2021/04/14 04:51:12;;;;;;;7.38;2.30;;;2.10;99.90;;;;;;5075051;28;20028;-76
2021/04/14 04:53:37;;;;;;;6.88;1.95;;;2.10;99.90;;;;;;5056846;28;20024;-75
2021/04/14 04:56:03;;;;;;;5.07;1.48;;;2.00;99.90;;;;;;5074871;28;20021;-75
2021/04/14 04:58:29;;;;;;;4.90;1.48;;;2.00;99.90;;;;;;5074070;28;20029;-75
2021/04/14 05:00:55;;;;;;;5.38;1.77;;;1.90;99.90;;;;;;5074395;28;20078;-75
2021/04/14 05:03:23;;;;;;;5.55;1.25;;;1.90;99.90;;;;;;5056862;28;20020;-75
2021/04/14 05:05:49;;;;;;;5.68;1.27;;;1.90;99.90;;;;;;5056458;28;20012;-76
2021/04/14 05:08:15;;;;;;;4.18;2.17;;;1.90;99.90;;;;;;5074424;28;20165;-75
2021/04/14 05:10:41;;;;;;;5.05;1.27;;;1.90;99.90;;;;;;5057376;28;20028;-76
2021/04/14 05:13:08;;;;;;;5.15;1.30;;;1.90;99.90;;;;;;5074134;28;20024;-75
2021/04/14 05:15:38;;;;;;;5.88;1.25;;;1.80;99.90;;;;;;5055338;28;20473;-74
2021/04/14 05:18:04;;;;;;;3.78;1.48;;;1.80;99.90;;;;;;5074336;28;20483;-74
2021/04/14 05:20:30;;;;;;;4.60;1.55;;;1.80;99.90;;;;;;5056432;28;20086;-74
2021/04/14 05:22:55;;;;;;;8.10;1.77;;;1.80;99.90;;;;;;5073511;28;20103;-75
2021/04/14 05:25:24;;;;;;;5.78;1.80;;;1.80;99.90;;;;;;5074260;28;20071;-74
2021/04/14 05:27:52;;;;;;;3.47;1.42;;;1.90;99.90;;;;;;5073740;28;20032;-74
2021/04/14 05:30:19;;;;;;;5.18;1.40;;;1.90;99.90;;;;;;5055838;28;20086;-75
2021/04/14 05:32:45;;;;;;;4.65;1.73;;;1.90;99.90;;;;;;5073813;28;20052;-75
2021/04/14 05:35:11;;;;;;;9.35;2.10;;;2.00;99.90;;;;;;5056253;28;20401;-75
2021/04/14 05:37:37;;;;;;;8.55;1.75;;;2.10;99.90;;;;;;5073550;28;20028;-76
2021/04/14 05:40:04;;;;;;;5.00;1.73;;;2.20;99.90;;;;;;5073879;28;20031;-75
2021/04/14 05:42:36;;;;;;;5.82;1.85;;;2.30;99.90;;;;;;5073468;28;20062;-76
2021/04/14 05:45:02;;;;;;;7.30;1.95;;;2.40;99.90;;;;;;5074643;28;20019;-76
2021/04/14 05:47:27;;;;;;;6.07;1.75;;;2.50;99.90;;;;;;5073767;28;20028;-76
2021/04/14 05:49:53;;;;;;;5.57;2.75;;;2.70;99.90;;;;;;5055700;28;20439;-76
2021/04/14 05:52:18;;;;;;;3.97;1.75;;;2.80;99.90;;;;;;5056199;28;20024;-76
2021/04/14 05:54:45;;;;;;;5.50;1.88;;;2.90;99.90;;;;;;5054572;28;20136;-75
2021/04/14 05:57:11;;;;;;;6.32;1.45;;;3.10;99.90;;;;;;5073550;28;20020;-76
2021/04/14 05:59:37;;;;;;;3.38;1.90;;;3.20;99.90;;;;;;5074116;28;20017;-76
2021/04/14 06:02:02;;;;;;;3.60;1.48;;;3.40;99.90;;;;;;5074012;28;20388;-77
2021/04/14 06:04:28;;;;;;;4.50;1.48;;;3.70;99.90;;;;;;5055623;28;20469;-77
2021/04/14 06:06:53;;;;;;;6.28;2.60;;;3.80;99.90;;;;;;5055335;28;20470;-76
2021/04/14 06:09:19;;;;;;;5.32;2.40;;;4.10;99.90;;;;;;5073800;28;20104;-76
2021/04/14 06:11:44;;;;;;;6.45;2.20;;;4.20;99.90;;;;;;5055458;28;20516;-76
2021/04/14 06:14:11;;;;;;;6.60;2.60;;;4.30;99.90;;;;;;5073940;28;20024;-75
2021/04/14 06:16:36;;;;;;;5.28;2.47;;;4.40;99.90;;;;;;5073734;28;20509;-76
2021/04/14 06:19:04;;;;;;;8.25;2.95;;;4.50;99.90;;;;;;5055854;28;20021;-76
2021/04/14 06:21:29;;;;;;;5.38;2.65;;;4.60;99.90;;;;;;5073704;28;20389;-76
2021/04/14 06:23:58;;;;;;;7.65;3.42;;;4.80;99.90;;;;;;5055979;28;20020;-77
2021/04/14 06:29:11;;;;;;;6.82;2.90;;;5.00;99.90;;;;;;5123238;22;20097;-76
2021/04/14 06:31:40;;;;;;;6.45;2.88;;;4.80;99.90;;;;;;5059916;28;20024;-77
2021/04/14 06:34:22;;;;;;;8.93;3.53;;;5.00;99.90;;;;;;5078302;28;20074;-78
2021/04/14 06:36:59;;;;;;;8.07;3.50;;;5.00;99.90;;;;;;5099404;22;20020;-78
2021/04/14 06:39:29;;;;;;;9.18;4.35;;;4.40;99.90;;;;;;5060162;28;20032;-77
2021/04/14 06:42:20;;;;;;;8.27;4.05;;;5.00;99.90;;;;;;5077601;28;20100;-77
2021/04/14 06:44:57;;;;;;;12.05;4.20;;;4.80;99.90;;;;;;5077555;28;20025;-77
2021/04/14 06:47:25;;;;;;;10.88;4.63;;;4.80;99.90;;;;;;5049951;28;20029;-77
2021/04/14 06:50:33;;;;;;;11.00;5.18;;;4.80;99.90;;;;;;5038751;28;20029;-77
2021/04/14 06:53:22;;;;;;;12.80;4.97;;;4.70;99.90;;;;;;5058114;28;20044;-77
2021/04/14 06:55:55;;;;;;;;;;;4.50;99.90;;;;;;5039149;28;20070;-77
2021/04/14 06:58:28;;;;;;;10.25;4.82;;;4.40;99.90;;;;;;5056588;28;19909;-77
2021/04/14 07:01:00;;;;;;;13.32;5.20;;;4.40;99.90;;;;;;5056676;28;20035;-77
2021/04/14 07:03:30;;;;;;;12.80;5.57;;;4.20;99.90;;;;;;5056814;28;20040;-77
2021/04/14 07:06:01;;;;;;;17.27;5.90;;;4.20;99.90;;;;;;5056695;28;20428;-77
2021/04/14 07:08:32;;;;;;;13.68;5.57;;;4.20;99.90;;;;;;5038920;28;20022;-77
2021/04/14 07:11:00;;;;;;;14.13;6.05;;;4.10;99.90;;;;;;5056818;28;20064;-76
2021/04/14 07:13:33;;;;;;;14.52;5.53;;;4.10;99.90;;;;;;5057082;28;20025;-76
2021/04/14 07:16:07;;;;;;;15.20;6.15;;;4.20;99.90;;;;;;5056947;28;20027;-77
2021/04/14 07:18:55;;;;;;;16.98;6.32;;;4.30;99.90;;;;;;5057047;28;20021;-77
2021/04/14 07:21:47;;;;;;;12.32;5.30;;;4.40;99.90;;;;;;5057028;28;20021;-77
2021/04/14 07:24:26;;;;;;;14.68;5.35;;;4.50;99.90;;;;;;5056807;28;20044;-75
2021/04/14 07:27:01;;;;;;;9.88;3.60;;;4.50;99.90;;;;;;5055816;28;20036;-75
2021/04/14 07:29:38;;;;;;;12.15;4.97;;;4.50;99.90;;;;;;5055596;28;20134;-75
2021/04/14 07:32:15;;;;;;;12.60;5.00;;;4.40;99.90;;;;;;5039047;28;20053;-76
2021/04/14 07:37:35;;;;;;;7.55;3.00;;;4.40;99.90;;;;;;5014967;28;20046;-75
2021/04/14 07:40:32;;;;;;;11.70;3.65;;;4.50;99.90;;;;;;4999189;28;20022;-75
2021/04/14 07:43:25;;;;;;;10.23;3.58;;;4.50;99.90;;;;;;4999766;28;20463;-76
2021/04/14 07:45:51;;;;;;;8.25;3.17;;;4.50;99.90;;;;;;4999230;28;20026;-76
2021/04/14 07:48:33;;;;;;;8.98;2.97;;;4.60;99.90;;;;;;4999427;28;20025;-77
2021/04/14 07:51:02;;;;;;;6.28;2.92;;;4.70;99.90;;;;;;4999732;28;20026;-77
2021/04/14 07:53:32;;;;;;;;;;;4.80;99.90;;;;;;5017559;28;20356;-75
2021/04/14 07:56:08;;;;;;;7.70;2.30;;;4.90;99.90;;;;;;4999580;28;19988;-76
2021/04/14 07:58:36;;;;;;;6.80;2.80;;;5.10;99.90;;;;;;4998257;28;20025;-74
2021/04/14 08:01:18;;;;;;;10.15;3.60;;;5.10;99.90;;;;;;5016713;28;20026;-76
2021/04/14 08:03:44;;;;;;;6.80;2.55;;;5.30;99.90;;;;;;4999289;28;20105;-75
2021/04/14 08:06:16;;;;;;;7.43;3.97;;;5.50;99.90;;;;;;5068216;22;20057;-75
2021/04/14 08:08:42;;;;;;;8.70;3.15;;;5.60;99.90;;;;;;5038757;28;20043;-76
2021/04/14 08:11:30;;;;;;;7.95;2.83;;;5.80;99.90;;;;;;5054380;28;20374;-76
2021/04/14 08:14:13;;;;;;;7.40;2.58;;;5.80;99.90;;;;;;5055609;28;20401;-74
2021/04/14 08:16:44;;;;;;;4.93;2.10;;;5.90;99.90;;;;;;5038097;28;20029;-75
2021/04/14 08:19:19;;;;;;;7.45;2.63;;;6.00;99.90;;;;;;5038438;28;20046;-75
2021/04/14 08:22:18;;;;;;;10.07;3.42;;;6.00;99.90;;;;;;5056272;28;20022;-76
2021/04/14 08:25:01;;;;;;;7.22;2.88;;;6.00;99.90;;;;;;5056405;28;20554;-76
2021/04/14 08:27:38;;;;;;;7.75;3.05;;;6.20;99.90;;;;;;5054947;28;20071;-77
2021/04/14 08:30:07;;;;;;;8.50;2.25;;;6.20;99.90;;;;;;5055824;28;20384;-76
2021/04/14 08:32:55;;;;;;;9.13;2.75;;;6.30;99.90;;;;;;5055925;28;20029;-77
2021/04/14 08:35:33;;;;;;;6.65;2.85;;;6.40;99.90;;;;;;5055887;28;20028;-76
2021/04/14 08:38:15;;;;;;;6.28;2.88;;;6.50;99.90;;;;;;5054990;28;20115;-75
2021/04/14 08:40:54;;;;;;;11.25;3.13;;;6.60;99.90;;;;;;5056422;28;20385;-78
2021/04/14 08:43:40;;;;;;;10.10;3.10;;;6.70;99.90;;;;;;5037826;28;20032;-78
2021/04/14 08:46:09;;;;;;;8.48;3.65;;;6.70;99.90;;;;;;5055473;28;20053;-76
2021/04/14 08:51:04;;;;;;;11.85;3.88;;;6.90;99.90;;;;;;5035386;28;20049;-76
2021/04/14 08:53:43;;;;;;;7.50;3.15;;;6.90;99.90;;;;;;5018551;28;20026;-79
2021/04/14 08:56:09;;;;;;;8.48;3.03;;;6.80;99.90;;;;;;5036262;28;20067;-77
2021/04/14 08:58:35;;;;;;;8.57;3.20;;;6.80;99.90;;;;;;5018750;28;20029;-79
2021/04/14 09:01:01;;;;;;;9.35;3.75;;;6.80;99.90;;;;;;5018299;28;20017;-77
2021/04/14 09:03:36;;;;;;;7.70;3.50;;;6.90;99.90;;;;;;5036092;28;20029;-80
2021/04/14 09:06:06;;;;;;;12.15;4.50;;;6.90;99.90;;;;;;5017918;28;20021;-79
2021/04/14 09:08:35;;;;;;;9.45;3.47;;;6.90;99.90;;;;;;5035260;28;20112;-76
2021/04/14 09:11:03;;;;;;;8.48;2.65;;;6.80;99.90;;;;;;5035453;28;20449;-75
2021/04/14 09:13:32;;;;;;;8.68;3.72;;;6.80;99.90;;;;;;5036088;28;20033;-80
2021/04/14 09:16:00;;;;;;;;;;;6.90;99.90;;;;;;5018862;28;20029;-80
2021/04/14 09:18:35;;;;;;;8.80;3.80;;;6.90;99.90;;;;;;5018833;28;19916;-80
2021/04/14 09:21:16;;;;;;;9.77;4.05;;;7.20;99.90;;;;;;5036744;28;20104;-80
2021/04/14 09:24:18;;;;;;;11.15;4.70;;;7.60;99.90;;;;;;5018583;28;20052;-80
2021/04/14 09:26:53;;;;;;;7.38;3.85;;;7.90;97.90;;;;;;5018127;28;20479;-80
2021/04/14 09:29:28;;;;;;;8.93;3.13;;;8.10;93.30;;;;;;5018551;28;20367;-80
2021/04/14 09:31:56;;;;;;;12.07;3.50;;;8.00;96.40;;;;;;5018836;28;20075;-80
2021/04/14 09:34:35;;;;;;;7.63;3.38;;;8.50;94.20;;;;;;5017931;28;20421;-80
2021/04/14 09:37:08;;;;;;;10.52;3.75;;;7.90;93.80;;;;;;5035661;28;20025;-80
2021/04/14 09:39:46;;;;;;;13.07;3.15;;;7.60;95.20;;;;;;5018492;28;20022;-80
2021/04/14 09:42:27;;;;;;;8.55;3.65;;;7.80;95.70;;;;;;5017939;28;20405;-80
2021/04/14 09:44:58;;;;;;;9.18;3.60;;;7.80;96.30;;;;;;5017619;28;20017;-77
2021/04/14 09:47:34;;;;;;;11.50;4.35;;;7.80;97.00;;;;;;5036488;23;20046;-75
2021/04/14 09:50:18;;;;;;;8.77;2.65;;;7.70;95.90;;;;;;5033291;28;20025;-77
2021/04/14 09:52:43;;;;;;;8.80;2.80;;;7.80;95.50;;;;;;5033385;28;20118;-77
2021/04/14 09:55:18;;;;;;;8.77;3.17;;;7.60;96.40;;;;;;5033846;28;20098;-75
2021/04/14 09:57:47;;;;;;;5.47;1.42;;;7.60;97.70;;;;;;5032573;28;20029;-77
2021/04/14 10:00:22;;;;;;;;;;;7.50;97.90;;;;;;5032849;28;20030;-77
2021/04/14 10:02:53;;;;;;;5.82;1.60;;;7.40;96.00;;;;;;5032780;28;19905;-79
2021/04/14 10:05:19;;;;;;;6.47;1.45;;;7.40;95.50;;;;;;5033409;28;20014;-77
2021/04/14 10:07:46;;;;;;;4.15;1.65;;;7.30;96.80;;;;;;5033344;28;20049;-80
2021/04/14 10:10:21;;;;;;;4.55;1.77;;;7.30;97.20;;;;;;5032550;28;20105;-79
2021/04/14 10:12:48;;;;;;;8.13;1.70;;;7.20;98.50;;;;;;5032569;28;20049;-78
2021/04/14 10:15:16;;;;;;;5.55;2.33;;;7.30;99.00;;;;;;5033155;28;20049;-76
2021/04/14 10:17:41;;;;;;;4.72;2.47;;;7.40;99.90;;;;;;5034003;28;20371;-80
2021/04/14 10:20:26;;;;;;;5.05;2.10;;;7.50;99.60;;;;;;5034203;28;20064;-79
2021/04/14 10:22:52;;;;;;;5.20;1.75;;;8.90;98.40;;;;;;5033764;28;20021;-79
2021/04/14 10:25:30;;;;;;;3.70;1.40;;;7.80;98.30;;;;;;5034752;28;20018;-78
2021/04/14 10:28:27;;;;;;;7.45;2.13;;;7.90;97.70;;;;;;5034890;28;20029;-80
2021/04/14 10:31:12;;;;;;;4.90;1.33;;;8.10;95.50;;;;;;5035203;28;20087;-79
2021/04/14 10:33:41;;;;;;;4.88;2.05;;;8.30;94.70;;;;;;5034703;28;20021;-77
2021/04/14 10:36:19;;;;;;;4.18;1.67;;;8.40;92.00;;;;;;5033869;28;20036;-75
2021/04/14 10:38:45;;;;;;;5.80;1.83;;;8.60;90.10;;;;;;5032701;28;20025;-79
2021/04/14 10:41:18;;;;;;;4.80;1.40;;;8.70;90.80;;;;;;5034307;28;20017;-78
2021/04/14 10:43:45;;;;;;;18.85;2.17;;;8.70;87.50;;;;;;5034049;28;20080;-79
2021/04/14 10:46:28;;;;;;;2.67;0.98;;;8.80;86.60;;;;;;5035079;28;20021;-80
2021/04/14 10:49:07;;;;;;;2.90;1.30;;;9.00;90.20;;;;;;5014593;28;20040;-77
2021/04/14 10:51:38;;;;;;;5.00;1.52;;;9.30;87.00;;;;;;5013330;28;20505;-76
2021/04/14 10:54:08;;;;;;;5.10;2.03;;;9.50;83.60;;;;;;5012719;28;20160;-77
2021/04/14 10:56:34;;;;;;;7.03;1.52;;;9.50;80.00;;;;;;5013068;28;20034;-77
2021/04/14 10:59:05;;;;;;;6.05;1.33;;;9.60;81.30;;;;;;5012946;28;20033;-79
2021/04/14 11:01:40;;;;;;;1.45;0.30;;;9.50;77.40;;;;;;5013567;28;20018;-77
2021/04/14 11:04:15;;;;;;;2.85;0.10;;;9.50;74.50;;;;;;5014217;28;20018;-77
2021/04/14 11:06:42;;;;;;;1.65;0.00;;;9.50;71.00;;;;;;5012966;28;20104;-78
2021/04/14 11:09:09;;;;;;;1.88;0.00;;;9.60;69.90;;;;;;5012237;28;20033;-77
2021/04/14 11:11:37;;;;;;;1.88;0.45;;;9.60;66.90;;;;;;5014846;28;20030;-78
2021/04/14 11:14:06;;;;;;;0.30;0.00;;;9.80;66.90;;;;;;5016528;28;20022;-77
2021/04/14 11:16:33;;;;;;;5.07;0.00;;;10.10;62.90;;;;;;5016548;28;20022;-80
2021/04/14 11:19:09;;;;;;;1.80;0.00;;;10.40;56.60;;;;;;5017765;28;20022;-78
2021/04/14 11:21:35;;;;;;;0.70;0.00;;;10.80;58.50;;;;;;5016908;28;20108;-76
2021/04/14 11:24:11;;;;;;;1.85;0.00;;;11.10;52.30;;;;;;5017799;28;20054;-78
2021/04/14 11:27:09;;;;;;;1.25;0.13;;;11.50;51.60;;;;;;5018617;28;20391;-77
2021/04/14 11:29:35;;;;;;;0.20;0.00;;;11.80;51.40;;;;;;5018888;28;20037;-80
2021/04/14 11:32:14;;;;;;;32.67;2.88;;;12.30;52.30;;;;;;5019385;28;20025;-77
2021/04/14 11:34:39;;;;;;;1.95;0.20;;;12.70;50.50;;;;;;5018083;28;20472;-76
2021/04/14 11:37:16;;;;;;;0.52;0.00;;;12.90;40.90;;;;;;5015514;28;20037;-76
2021/04/14 11:39:53;;;;;;;0.80;0.10;;;13.00;40.20;;;;;;5015540;28;20033;-77
2021/04/14 11:42:29;;;;;;;0.82;0.00;;;13.20;45.60;;;;;;5016860;28;20083;-79
2021/04/14 11:44:59;;;;;;;0.03;0.00;;;13.20;43.00;;;;;;5015260;28;20014;-77
2021/04/14 11:47:29;;;;;;;0.65;0.00;;;13.10;43.80;;;;;;5024149;28;20128;-77
2021/04/14 11:49:56;;;;;;;0.00;0.00;;;13.30;46.00;;;;;;5036230;28;20146;-79
2021/04/14 11:52:31;;;;;;;0.00;0.00;;;13.50;43.20;;;;;;5034893;28;20036;-79
2021/04/14 11:54:57;;;;;;;0.00;0.00;;;13.40;41.00;;;;;;5035269;28;20021;-77
2021/04/14 11:57:29;;;;;;;1.08;0.30;;;13.20;40.10;;;;;;5036224;28;20493;-80
2021/04/14 12:00:26;;;;;;;0.00;0.00;;;12.80;42.70;;;;;;5034872;28;20483;-80
2021/04/14 12:03:02;;;;;;;0.20;0.00;;;12.30;45.60;;;;;;5034836;28;20025;-80
2021/04/14 12:05:29;;;;;;;0.43;0.00;;;11.90;45.00;;;;;;5036422;28;20025;-80
2021/04/14 12:07:54;;;;;;;0.10;0.00;;;11.60;46.10;;;;;;5034780;28;20061;-81
2021/04/14 12:10:20;;;;;;;0.22;0.00;;;11.50;44.70;;;;;;5035157;28;20021;-80
2021/04/14 12:12:48;;;;;;;0.20;0.05;;;11.40;42.70;;;;;;5035752;28;20021;-80
2021/04/14 12:15:15;;;;;;;0.03;0.00;;;11.20;41.90;;;;;;5035571;28;20045;-80
2021/04/14 12:17:40;;;;;;;3.78;0.00;;;11.10;43.90;;;;;;5036751;28;20057;-80
2021/04/14 12:20:06;;;;;;;1.48;0.00;;;11.10;43.50;;;;;;5035854;28;20071;-80
2021/04/14 12:22:32;;;;;;;0.20;0.00;;;11.00;42.70;;;;;;5035959;28;20025;-79
2021/04/14 12:24:58;;;;;;;1.55;0.08;;;10.90;41.60;;;;;;5035513;28;20093;-79
2021/04/14 12:27:24;;;;;;;0.75;0.00;;;10.90;43.30;;;;;;5035559;28;20529;-79
2021/04/14 12:29:50;;;;;;;0.10;0.00;;;11.20;44.30;;;;;;5034987;28;20026;-79
2021/04/14 12:32:16;;;;;;;2.58;0.15;;;11.60;46.80;;;;;;5034825;28;20027;-79
2021/04/14 12:34:42;;;;;;;0.80;0.00;;;12.40;47.20;;;;;;5034011;28;20025;-78
2021/04/14 12:37:07;;;;;;;1.65;0.00;;;13.00;48.80;;;;;;5034395;28;20029;-75
2021/04/14 12:39:33;;;;;;;1.67;0.00;;;13.30;49.70;;;;;;5034395;28;20079;-77
2021/04/14 12:41:58;;;;;;;0.95;0.00;;;13.20;49.20;;;;;;5033931;28;20112;-77
2021/04/14 12:44:24;;;;;;;0.43;0.20;;;12.70;46.70;;;;;;5033862;28;20040;-77
2021/04/14 12:46:53;;;;;;;0.90;0.00;;;12.30;46.70;;;;;;5038896;28;20062;-77
2021/04/14 12:49:21;;;;;;;0.25;0.00;;;12.30;46.90;;;;;;5036967;28;20021;-77
2021/04/14 12:51:58;;;;;;;4.57;0.00;;;12.80;47.80;;;;;;5054839;28;20086;-77
2021/04/14 12:54:32;;;;;;;1.95;0.17;;;13.20;51.20;;;;;;5055117;28;20025;-77
2021/04/14 12:57:09;;;;;;;1.95;0.00;;;13.90;46.70;;;;;;5037539;28;20028;-78
2021/04/14 12:59:48;;;;;;;0.30;0.00;;;14.40;45.90;;;;;;5055009;28;20111;-77
2021/04/14 13:02:17;;;;;;;1.40;0.00;;;14.50;42.20;;;;;;5036952;28;20017;-77
2021/04/14 13:05:01;;;;;;;;;;;14.10;41.50;;;;;;5036968;28;20112;-77
2021/04/14 13:07:40;;;;;;;1.55;0.08;;;13.60;43.50;;;;;;5054509;28;19915;-77
2021/04/14 13:10:09;;;;;;;2.70;0.00;;;12.90;42.80;;;;;;5054504;28;20486;-77
2021/04/14 13:12:37;;;;;;;0.90;0.10;;;12.60;46.00;;;;;;5054150;28;20017;-79
2021/04/14 13:15:14;;;;;;;1.40;0.00;;;12.60;47.70;;;;;;5036861;28;20061;-77
2021/04/14 13:18:00;;;;;;;0.65;0.00;;;13.00;47.70;;;;;;5056018;28;20036;-80
2021/04/14 13:20:25;;;;;;;0.98;0.00;;;13.30;49.00;;;;;;5037565;28;20478;-80
2021/04/14 13:23:10;;;;;;;1.10;0.00;;;13.00;48.20;;;;;;5037769;28;20070;-79